createdAt,value
2017-11-15T00:00:44.937Z,19.40
2017-11-15T00:03:14.039Z,20.13
2017-11-15T00:05:47.981Z,18.10
2017-11-15T00:08:16.949Z,20.27
2017-11-15T00:10:45.893Z,17.23
2017-11-15T00:13:14.835Z,18.43
2017-11-15T00:15:45.803Z,18.23
2017-11-15T00:18:15.563Z,17.67
2017-11-15T00:20:44.528Z,18.70
2017-11-15T00:23:13.460Z,17.23
2017-11-15T00:25:42.453Z,17.50
2017-11-15T00:28:11.402Z,18.37
2017-11-15T00:30:40.386Z,17.77
2017-11-15T00:33:09.324Z,19.53
2017-11-15T00:35:38.287Z,21.07
2017-11-15T00:38:07.276Z,17.97
2017-11-15T00:40:36.298Z,17.37
2017-11-15T00:43:05.274Z,18.10
2017-11-15T00:45:34.625Z,19.10
2017-11-15T00:48:04.380Z,18.47
2017-11-15T00:50:33.320Z,19.43
2017-11-15T00:53:02.299Z,18.63
2017-11-15T00:55:31.277Z,19.60
2017-11-15T00:58:02.173Z,19.67
2017-11-15T01:00:31.904Z,19.70
2017-11-15T01:03:01.742Z,18.20
2017-11-15T01:05:30.733Z,18.97
2017-11-15T01:07:59.714Z,18.20
2017-11-15T01:10:29.481Z,16.30
2017-11-15T01:12:59.246Z,19.83
2017-11-15T01:15:28.315Z,18.43
2017-11-15T01:17:57.256Z,17.93
2017-11-15T01:20:26.297Z,17.77
2017-11-15T01:22:55.270Z,17.13
2017-11-15T01:25:24.533Z,17.30
2017-11-15T01:27:53.535Z,18.57
2017-11-15T01:30:23.270Z,19.17
2017-11-15T01:32:52.341Z,17.07
2017-11-15T01:35:22.041Z,17.53
2017-11-15T01:37:51.382Z,18.40
2017-11-15T01:40:20.474Z,18.97
2017-11-15T01:42:49.422Z,16.30
2017-11-15T01:45:18.439Z,15.70
2017-11-15T01:47:47.419Z,17.80
2017-11-15T01:50:16.368Z,16.23
2017-11-15T01:52:45.517Z,17.87
2017-11-15T01:55:14.550Z,17.20
2017-11-15T01:57:43.615Z,16.93
2017-11-15T02:00:12.576Z,17.73
2017-11-15T02:02:41.533Z,17.30
2017-11-15T02:05:10.602Z,16.40
2017-11-15T02:07:39.589Z,15.37
2017-11-15T02:10:08.594Z,15.03
2017-11-15T02:12:37.608Z,16.60
2017-11-15T02:15:06.634Z,14.23
2017-11-15T02:17:35.602Z,16.20
2017-11-15T02:20:04.556Z,15.90
2017-11-15T02:22:33.636Z,15.93
2017-11-15T02:25:03.354Z,15.77
2017-11-15T02:27:34.013Z,15.10
2017-11-15T02:30:03.042Z,15.37
2017-11-15T02:32:32.019Z,15.00
2017-11-15T02:35:01.359Z,14.57
2017-11-15T02:37:32.000Z,16.40
2017-11-15T02:40:03.171Z,15.40
2017-11-15T02:42:32.286Z,16.27
2017-11-15T02:45:02.448Z,14.00
2017-11-15T02:47:33.559Z,15.80
2017-11-15T02:50:02.517Z,16.67
2017-11-15T02:52:31.498Z,16.53
2017-11-15T02:55:00.468Z,16.50
2017-11-15T02:57:30.227Z,15.50
2017-11-15T02:59:59.351Z,17.00
2017-11-15T03:02:28.298Z,17.03
2017-11-15T03:04:57.283Z,17.40
2017-11-15T03:07:26.346Z,16.33
2017-11-15T03:09:55.323Z,17.20
2017-11-15T03:12:24.268Z,16.33
2017-11-15T03:14:53.212Z,18.17
2017-11-15T03:17:22.219Z,18.63
2017-11-15T03:19:51.914Z,16.17
2017-11-15T03:22:21.182Z,17.10
2017-11-15T03:24:50.149Z,17.90
2017-11-15T03:27:19.267Z,16.40
2017-11-15T03:29:48.245Z,17.70
2017-11-15T03:32:17.232Z,17.20
2017-11-15T03:34:46.211Z,17.50
2017-11-15T03:37:15.247Z,18.47
2017-11-15T03:39:44.369Z,18.10
2017-11-15T03:42:14.124Z,17.20
2017-11-15T03:44:43.078Z,18.03
2017-11-15T03:47:12.832Z,18.67
2017-11-15T03:49:41.894Z,18.50
2017-11-15T03:52:11.634Z,18.03
2017-11-15T03:54:40.791Z,19.43
2017-11-15T03:57:10.571Z,16.37
2017-11-15T03:59:39.730Z,17.23
2017-11-15T04:02:08.686Z,16.80
2017-11-15T04:04:38.510Z,18.23
2017-11-15T04:07:08.209Z,17.97
2017-11-15T04:09:37.989Z,18.83
2017-11-15T04:12:06.936Z,19.40
2017-11-15T04:14:35.903Z,18.67
2017-11-15T04:17:05.648Z,19.20
2017-11-15T04:19:34.605Z,19.63
2017-11-15T04:22:04.364Z,17.63
2017-11-15T04:26:57.340Z,18.73
2017-11-15T04:29:26.624Z,25.42
2017-11-15T04:31:55.581Z,20.57
2017-11-15T04:34:25.299Z,20.93
2017-11-15T04:36:54.323Z,18.50
2017-11-15T04:39:23.278Z,19.07
2017-11-15T04:41:53.049Z,20.33
2017-11-15T04:44:22.814Z,22.43
2017-11-15T04:46:51.799Z,20.50
2017-11-15T04:49:20.741Z,22.77
2017-11-15T04:51:49.868Z,20.63
2017-11-15T04:54:18.940Z,21.67
2017-11-15T04:56:48.711Z,23.03
2017-11-15T04:59:18.060Z,20.00
2017-11-15T05:01:47.751Z,23.67
2017-11-15T05:04:16.907Z,21.63
2017-11-15T05:06:45.857Z,21.30
2017-11-15T05:09:15.596Z,22.27
2017-11-15T05:11:44.759Z,22.20
2017-11-15T05:14:16.156Z,21.37
2017-11-15T05:16:45.150Z,22.70
2017-11-15T05:19:14.182Z,21.33
2017-11-15T05:21:43.151Z,22.30
2017-11-15T05:24:13.287Z,24.20
2017-11-15T05:26:42.230Z,22.53
2017-11-15T05:29:11.615Z,21.80
2017-11-15T05:31:42.006Z,21.73
2017-11-15T05:34:11.007Z,22.17
2017-11-15T05:36:40.816Z,24.33
2017-11-15T05:39:10.059Z,25.20
2017-11-15T05:41:39.385Z,23.50
2017-11-15T05:44:08.440Z,24.07
2017-11-15T05:46:38.291Z,24.83
2017-11-15T05:49:07.730Z,26.17
2017-11-15T05:51:37.462Z,23.90
2017-11-15T05:54:07.199Z,26.37
2017-11-15T05:56:36.185Z,24.03
2017-11-15T05:59:05.311Z,25.40
2017-11-15T06:01:34.321Z,24.63
2017-11-15T06:04:03.298Z,25.97
2017-11-15T06:06:32.441Z,26.97
2017-11-15T06:09:01.434Z,26.70
2017-11-15T06:11:30.462Z,26.70
2017-11-15T06:13:59.395Z,28.50
2017-11-15T06:16:28.435Z,26.50
2017-11-15T06:18:57.873Z,27.50
2017-11-15T06:21:27.579Z,27.90
2017-11-15T06:23:56.577Z,29.37
2017-11-15T06:26:25.955Z,27.80
2017-11-15T06:28:56.293Z,28.90
2017-11-15T06:31:26.153Z,27.97
2017-11-15T06:33:55.556Z,28.87
2017-11-15T06:36:24.543Z,29.13
2017-11-15T06:38:53.482Z,28.33
2017-11-15T06:41:23.193Z,28.80
2017-11-15T06:43:52.587Z,29.07
2017-11-15T06:46:21.645Z,30.57
2017-11-15T06:48:50.630Z,30.30
2017-11-15T06:51:20.394Z,28.27
2017-11-15T06:53:49.409Z,31.90
2017-11-15T06:56:18.449Z,28.90
2017-11-15T06:58:47.462Z,29.20
2017-11-15T07:01:16.449Z,29.20
2017-11-15T07:03:45.462Z,30.10
2017-11-15T07:06:14.901Z,30.90
2017-11-15T07:08:43.852Z,31.03
2017-11-15T07:11:12.792Z,29.30
2017-11-15T07:13:42.547Z,27.90
2017-11-15T07:16:11.632Z,30.67
2017-11-15T07:18:40.687Z,32.93
2017-11-15T07:21:09.648Z,29.10
2017-11-15T07:23:39.100Z,31.17
2017-11-15T07:26:08.904Z,28.97
2017-11-15T07:28:38.651Z,28.40
2017-11-15T07:31:07.613Z,30.20
2017-11-15T07:33:37.351Z,30.60
2017-11-15T07:36:06.337Z,31.27
2017-11-15T07:38:35.422Z,31.80
2017-11-15T07:41:04.961Z,29.93
2017-11-15T07:43:33.980Z,28.03
2017-11-15T07:46:03.336Z,30.27
2017-11-15T07:48:32.749Z,27.80
2017-11-15T07:51:01.797Z,30.47
2017-11-15T07:53:31.570Z,28.03
2017-11-15T07:56:00.569Z,27.67
2017-11-15T07:58:29.547Z,28.73
2017-11-15T08:00:58.511Z,26.53
2017-11-15T08:03:27.579Z,31.70
2017-11-15T08:05:57.345Z,30.30
2017-11-15T08:08:26.748Z,27.90
2017-11-15T08:10:55.729Z,28.63
2017-11-15T08:13:24.688Z,27.50
2017-11-15T08:15:53.687Z,28.50
2017-11-15T08:18:23.536Z,29.03
2017-11-15T08:20:52.922Z,27.30
2017-11-15T08:23:22.339Z,25.93
2017-11-15T08:25:51.322Z,27.57
2017-11-15T08:28:20.345Z,26.80
2017-11-15T08:30:49.764Z,27.03
2017-11-15T08:33:19.515Z,27.27
2017-11-15T08:35:48.494Z,26.97
2017-11-15T08:38:18.193Z,26.30
2017-11-15T08:40:52.075Z,27.47
2017-11-15T08:43:22.360Z,27.50
2017-11-15T08:45:51.416Z,26.17
2017-11-15T08:48:22.355Z,25.73
2017-11-15T08:50:52.456Z,26.53
2017-11-15T08:53:21.587Z,26.20
2017-11-15T08:55:50.698Z,27.17
2017-11-15T08:58:20.605Z,24.90
2017-11-15T09:00:49.680Z,24.50
2017-11-15T09:03:19.736Z,26.50
2017-11-15T09:05:49.521Z,24.90
2017-11-15T09:08:19.191Z,26.90
2017-11-15T09:10:48.953Z,24.37
2017-11-15T09:13:18.820Z,27.37
2017-11-15T09:15:50.157Z,28.33
2017-11-15T09:18:20.162Z,24.87
2017-11-15T09:20:50.030Z,26.57
2017-11-15T09:23:19.275Z,27.03
2017-11-15T09:25:48.764Z,27.70
2017-11-15T09:28:20.235Z,26.60
2017-11-15T09:30:50.805Z,25.53
2017-11-15T09:33:22.389Z,25.53
2017-11-15T09:35:51.948Z,28.10
2017-11-15T09:38:21.846Z,26.87
2017-11-15T09:40:51.819Z,28.00
2017-11-15T09:43:21.672Z,27.07
2017-11-15T09:45:50.675Z,28.07
2017-11-15T09:48:19.690Z,29.10
2017-11-15T09:50:48.919Z,29.33
2017-11-15T09:53:18.802Z,31.70
2017-11-15T09:55:48.765Z,31.73
2017-11-15T09:58:18.524Z,30.50
2017-11-15T10:00:47.880Z,29.53
2017-11-15T10:03:23.710Z,30.83
2017-11-15T10:05:52.843Z,31.47
2017-11-15T10:08:21.954Z,32.57
2017-11-15T10:10:52.041Z,28.47
2017-11-15T10:13:22.040Z,29.93
2017-11-15T10:15:51.134Z,31.40
2017-11-15T10:18:21.200Z,30.40
2017-11-15T10:20:51.404Z,31.00
2017-11-15T10:23:22.398Z,29.80
2017-11-15T10:25:52.344Z,30.00
2017-11-15T10:28:22.248Z,31.47
2017-11-15T10:30:54.324Z,27.83
2017-11-15T10:33:23.887Z,30.27
2017-11-15T10:35:53.666Z,28.17
2017-11-15T10:38:24.972Z,27.40
2017-11-15T10:40:55.491Z,31.53
2017-11-15T10:43:25.597Z,29.30
2017-11-15T10:45:55.991Z,29.23
2017-11-15T10:48:25.789Z,27.90
2017-11-15T10:50:56.144Z,30.30
2017-11-15T10:53:25.971Z,28.30
2017-11-15T10:55:54.950Z,28.37
2017-11-15T10:58:24.726Z,29.20
2017-11-15T11:00:53.837Z,26.50
2017-11-15T11:03:23.666Z,28.90
2017-11-15T11:05:53.885Z,27.30
2017-11-15T11:08:23.758Z,28.37
2017-11-15T11:10:54.470Z,27.17
2017-11-15T11:13:23.506Z,28.27
2017-11-15T11:15:53.311Z,26.90
2017-11-15T11:18:22.460Z,26.83
2017-11-15T11:20:52.952Z,26.97
2017-11-15T11:23:23.467Z,28.70
2017-11-15T11:25:52.516Z,26.93
2017-11-15T11:28:21.593Z,26.10
2017-11-15T11:30:50.564Z,27.00
2017-11-15T11:33:20.661Z,29.07
2017-11-15T11:35:50.528Z,27.27
2017-11-15T11:38:19.918Z,28.80
2017-11-15T11:40:49.456Z,28.73
2017-11-15T11:43:18.948Z,28.60
2017-11-15T11:45:48.047Z,31.23
2017-11-15T11:48:17.974Z,30.30
2017-11-15T11:50:47.509Z,29.13
2017-11-15T11:53:18.348Z,26.30
2017-11-15T11:55:48.273Z,25.87
2017-11-15T11:58:18.932Z,30.03
2017-11-15T12:00:49.621Z,28.90
2017-11-15T12:03:20.386Z,26.10
2017-11-15T12:05:51.393Z,30.33
2017-11-15T12:08:20.454Z,29.70
2017-11-15T12:10:49.988Z,28.43
2017-11-15T12:13:20.267Z,28.57
2017-11-15T12:15:49.332Z,29.07
2017-11-15T12:18:19.196Z,28.57
2017-11-15T12:20:48.962Z,29.30
2017-11-15T12:23:19.393Z,27.70
2017-11-15T12:25:50.612Z,28.20
2017-11-15T12:28:20.134Z,26.93
2017-11-15T12:30:50.014Z,28.83
2017-11-15T12:33:19.880Z,28.40
2017-11-15T12:35:49.080Z,27.33
2017-11-15T12:38:18.271Z,25.37
2017-11-15T12:40:47.930Z,27.80
2017-11-15T12:43:18.055Z,25.60
2017-11-15T12:45:48.074Z,26.17
2017-11-15T12:48:17.221Z,26.83
2017-11-15T12:50:46.356Z,28.80
2017-11-15T12:53:15.356Z,24.40
2017-11-15T12:55:44.307Z,27.40
2017-11-15T12:58:13.309Z,25.77
2017-11-15T13:00:42.716Z,27.47
2017-11-15T13:03:12.475Z,26.73
2017-11-15T13:05:41.442Z,24.63
2017-11-15T13:08:11.234Z,27.60
2017-11-15T13:10:40.657Z,26.17
2017-11-15T13:13:10.414Z,27.50
2017-11-15T13:15:39.769Z,25.53
2017-11-15T13:18:09.547Z,27.17
2017-11-15T13:20:38.910Z,28.27
2017-11-15T13:23:08.642Z,25.40
2017-11-15T13:25:37.623Z,26.80
2017-11-15T13:28:06.587Z,24.60
2017-11-15T13:30:35.543Z,26.53
2017-11-15T13:33:04.621Z,27.60
2017-11-15T13:35:33.591Z,26.00
2017-11-15T13:38:02.593Z,30.00
2017-11-15T13:40:31.552Z,28.30
2017-11-15T13:43:01.276Z,26.50
2017-11-15T13:45:31.037Z,26.47
2017-11-15T13:47:59.975Z,24.53
2017-11-15T13:50:29.724Z,24.80
2017-11-15T13:53:04.644Z,25.70
2017-11-15T13:55:33.972Z,24.13
2017-11-15T13:58:02.986Z,25.20
2017-11-15T14:00:32.734Z,24.80
2017-11-15T14:03:02.547Z,26.00
2017-11-15T14:05:32.314Z,26.60
2017-11-15T14:08:02.067Z,23.90
2017-11-15T14:10:31.410Z,26.53
2017-11-15T14:13:00.381Z,24.60
2017-11-15T14:15:29.333Z,25.90
2017-11-15T14:17:58.710Z,28.27
2017-11-15T14:20:28.456Z,26.30
2017-11-15T14:22:57.517Z,25.83
2017-11-15T14:25:27.277Z,25.40
2017-11-15T14:27:56.641Z,26.27
2017-11-15T14:30:25.619Z,27.07
2017-11-15T14:32:55.346Z,25.20
2017-11-15T14:35:24.339Z,25.50
2017-11-15T14:37:54.134Z,23.83
2017-11-15T14:40:23.871Z,25.37
2017-11-15T14:42:53.616Z,26.70
2017-11-15T14:45:22.742Z,26.80
2017-11-15T14:47:52.100Z,25.60
2017-11-15T14:50:21.512Z,25.70
2017-11-15T14:52:50.512Z,24.07
2017-11-15T14:55:19.479Z,26.20
2017-11-15T14:57:48.510Z,24.80
2017-11-15T15:00:17.480Z,24.23
2017-11-15T15:02:46.515Z,25.87
2017-11-15T15:05:16.273Z,28.15
2017-11-15T15:07:45.261Z,26.60
2017-11-15T15:10:14.220Z,24.57
2017-11-15T15:12:44.129Z,25.10
2017-11-15T15:15:13.475Z,24.70
2017-11-15T15:17:42.618Z,27.60
2017-11-15T15:20:12.446Z,23.70
2017-11-15T15:22:42.227Z,26.10
2017-11-15T15:25:11.272Z,23.93
2017-11-15T15:27:40.249Z,25.20
2017-11-15T15:30:09.631Z,26.77
2017-11-15T15:32:39.361Z,24.10
2017-11-15T15:35:08.353Z,25.90
2017-11-15T15:37:37.387Z,24.57
2017-11-15T15:40:06.343Z,26.30
2017-11-15T15:42:35.751Z,25.10
2017-11-15T15:45:04.699Z,22.63
2017-11-15T15:47:34.452Z,23.53
2017-11-15T15:50:03.514Z,24.63
2017-11-15T15:52:33.270Z,26.30
2017-11-15T15:55:02.455Z,25.60
2017-11-15T15:57:31.413Z,25.60
2017-11-15T16:00:01.573Z,25.90
2017-11-15T16:02:31.460Z,26.00
2017-11-15T16:05:00.552Z,24.73
2017-11-15T16:07:30.321Z,25.23
2017-11-15T16:09:59.456Z,25.43
2017-11-15T16:12:29.283Z,23.70
2017-11-15T16:14:58.241Z,26.20
2017-11-15T16:17:27.977Z,25.97
2017-11-15T16:19:56.978Z,24.10
2017-11-15T16:22:26.726Z,26.63
2017-11-15T16:24:55.722Z,24.50
2017-11-15T16:27:24.708Z,24.87
2017-11-15T16:29:53.660Z,25.73
2017-11-15T16:32:23.369Z,25.43
2017-11-15T16:34:52.358Z,25.37
2017-11-15T16:37:21.336Z,25.93
2017-11-15T16:39:51.795Z,24.33
2017-11-15T16:42:20.772Z,23.90
2017-11-15T16:44:49.721Z,24.10
2017-11-15T16:47:18.710Z,24.00
2017-11-15T16:49:47.671Z,23.37
2017-11-15T16:52:16.670Z,24.07
2017-11-15T16:54:45.719Z,24.00
2017-11-15T16:57:14.678Z,25.20
2017-11-15T16:59:43.681Z,23.07
2017-11-15T17:02:12.770Z,22.30
2017-11-15T17:04:41.735Z,23.30
2017-11-15T17:07:10.694Z,25.37
2017-11-15T17:09:40.509Z,24.03
2017-11-15T17:12:09.869Z,24.97
2017-11-15T17:14:38.899Z,25.33
2017-11-15T17:17:07.923Z,23.17
2017-11-15T17:19:36.879Z,25.03
2017-11-15T17:22:06.681Z,26.10
2017-11-15T17:24:36.438Z,23.87
2017-11-15T17:27:05.423Z,24.17
2017-11-15T17:29:34.397Z,25.53
2017-11-15T17:32:03.348Z,27.53
2017-11-15T17:34:32.354Z,26.83
2017-11-15T17:37:02.054Z,26.40
2017-11-15T17:39:31.433Z,27.17
2017-11-15T17:42:00.428Z,26.67
2017-11-15T17:44:29.425Z,26.20
2017-11-15T17:46:58.417Z,27.10
2017-11-15T17:49:27.408Z,26.93
2017-11-15T17:51:56.375Z,26.47
2017-11-15T17:54:25.744Z,26.50
2017-11-15T17:56:54.724Z,29.30
2017-11-15T17:59:24.474Z,26.50
2017-11-15T18:01:53.428Z,27.47
2017-11-15T18:04:23.253Z,27.57
2017-11-15T18:06:52.245Z,23.97
2017-11-15T18:09:22.467Z,27.37
2017-11-15T18:11:51.833Z,25.30
2017-11-15T18:14:22.956Z,24.93
2017-11-15T18:16:52.091Z,24.27
2017-11-15T18:19:21.903Z,23.10
2017-11-15T18:21:51.322Z,22.80
2017-11-15T18:24:21.127Z,26.20
2017-11-15T18:26:50.861Z,23.70
2017-11-15T18:29:21.052Z,24.77
2017-11-15T18:31:50.422Z,24.30
2017-11-15T18:34:20.214Z,23.20
2017-11-15T18:36:49.204Z,24.43
2017-11-15T18:39:18.971Z,23.50
2017-11-15T18:41:48.327Z,22.00
2017-11-15T18:44:17.347Z,23.57
2017-11-15T18:46:46.361Z,22.40
2017-11-15T18:49:16.144Z,24.63
2017-11-15T18:51:45.140Z,23.20
2017-11-15T18:54:14.535Z,22.90
2017-11-15T18:56:43.572Z,22.10
2017-11-15T18:59:12.590Z,22.40
2017-11-15T19:01:41.539Z,21.20
2017-11-15T19:04:11.379Z,20.67
2017-11-15T19:06:40.458Z,20.63
2017-11-15T19:09:10.300Z,22.73
2017-11-15T19:11:39.903Z,20.30
2017-11-15T19:14:09.035Z,21.53
2017-11-15T19:16:39.079Z,20.67
2017-11-15T19:19:08.860Z,18.80
2017-11-15T19:21:39.424Z,21.87
2017-11-15T19:24:09.797Z,20.80
2017-11-15T19:26:39.578Z,21.30
2017-11-15T19:29:08.587Z,20.93
2017-11-15T19:31:37.579Z,19.27
2017-11-15T19:34:06.587Z,19.23
2017-11-15T19:36:35.603Z,19.43
2017-11-15T19:39:04.997Z,20.20
2017-11-15T19:41:33.988Z,24.07
2017-11-15T19:44:03.030Z,19.33
2017-11-15T19:46:33.246Z,19.17
2017-11-15T19:49:02.759Z,21.00
2017-11-15T19:51:32.548Z,19.70
2017-11-15T19:54:02.388Z,21.17
2017-11-15T19:56:31.403Z,20.90
2017-11-15T19:59:01.407Z,19.20
2017-11-15T20:01:30.461Z,19.27
2017-11-15T20:04:01.039Z,20.60
2017-11-15T20:06:30.087Z,18.90
2017-11-15T20:09:00.663Z,19.63
2017-11-15T20:11:30.672Z,22.27
2017-11-15T20:14:00.308Z,22.00
2017-11-15T20:16:30.298Z,21.17
2017-11-15T20:18:59.714Z,22.17
2017-11-15T20:21:28.802Z,27.57
2017-11-15T20:23:57.799Z,31.97
2017-11-15T20:26:26.826Z,23.03
2017-11-15T20:28:55.853Z,23.43
2017-11-15T20:31:24.866Z,21.60
2017-11-15T20:33:54.887Z,21.03
2017-11-15T20:36:23.995Z,19.80
2017-11-15T20:38:53.009Z,21.47
2017-11-15T20:41:22.695Z,19.33
2017-11-15T20:43:51.769Z,23.10
2017-11-15T20:46:20.864Z,22.90
2017-11-15T20:48:49.912Z,19.37
2017-11-15T20:51:18.940Z,20.00
2017-11-15T20:53:48.332Z,17.03
2017-11-15T20:56:19.087Z,18.50
2017-11-15T20:58:48.485Z,19.30
2017-11-15T21:01:17.526Z,20.80
2017-11-15T21:03:46.745Z,19.63
2017-11-15T21:06:17.291Z,20.10
2017-11-15T21:08:46.394Z,21.07
2017-11-15T21:11:15.425Z,19.20
2017-11-15T21:13:44.475Z,18.90
2017-11-15T21:16:13.500Z,19.40
2017-11-15T21:18:42.587Z,20.90
2017-11-15T21:21:11.617Z,19.33
2017-11-15T21:23:40.733Z,19.30
2017-11-15T21:26:10.165Z,19.40
2017-11-15T21:28:39.620Z,19.07
2017-11-15T21:31:08.681Z,19.60
2017-11-15T21:33:37.687Z,19.63
2017-11-15T21:36:07.477Z,19.27
2017-11-15T21:38:36.467Z,19.83
2017-11-15T21:41:06.155Z,21.30
2017-11-15T21:43:35.161Z,21.07
2017-11-15T21:46:04.130Z,20.27
2017-11-15T21:48:33.138Z,19.03
2017-11-15T21:51:02.514Z,18.97
2017-11-15T21:53:32.270Z,20.47
2017-11-15T21:56:01.395Z,17.50
2017-11-15T21:58:30.798Z,18.30
2017-11-15T22:01:01.388Z,19.97
2017-11-15T22:03:30.352Z,21.43
2017-11-15T22:06:00.122Z,19.20
2017-11-15T22:08:29.475Z,20.20
2017-11-15T22:10:58.502Z,18.90
2017-11-15T22:13:27.489Z,20.80
2017-11-15T22:15:56.482Z,21.70
2017-11-15T22:18:26.633Z,21.00
2017-11-15T22:20:55.590Z,20.57
2017-11-15T22:23:25.318Z,22.50
2017-11-15T22:25:54.319Z,21.53
2017-11-15T22:28:23.303Z,21.93
2017-11-15T22:30:52.650Z,21.87
2017-11-15T22:33:22.397Z,24.33
2017-11-15T22:35:51.453Z,21.17
2017-11-15T22:38:21.208Z,19.80
2017-11-15T22:40:50.565Z,24.00
2017-11-15T22:43:19.556Z,19.70
2017-11-15T22:45:49.595Z,22.47
2017-11-15T22:48:19.334Z,22.10
2017-11-15T22:50:49.085Z,23.83
2017-11-15T22:53:18.838Z,25.20
2017-11-15T22:55:47.801Z,25.10
2017-11-15T22:58:16.781Z,25.80
2017-11-15T23:00:46.143Z,24.00
2017-11-15T23:03:15.082Z,25.10
2017-11-15T23:05:44.062Z,25.07
2017-11-15T23:08:13.418Z,24.90
2017-11-15T23:10:42.813Z,26.77
2017-11-15T23:13:12.753Z,24.53
2017-11-15T23:15:42.697Z,24.27
2017-11-15T23:18:12.443Z,24.80
2017-11-15T23:20:41.819Z,23.57
2017-11-15T23:23:11.580Z,23.47
2017-11-15T23:25:40.524Z,24.13
2017-11-15T23:28:09.530Z,27.93
2017-11-15T23:30:38.502Z,24.83
2017-11-15T23:33:07.910Z,25.37
2017-11-15T23:35:36.852Z,25.73
2017-11-15T23:38:05.883Z,24.70
2017-11-15T23:40:35.591Z,25.30
2017-11-15T23:43:05.335Z,24.43
2017-11-15T23:45:34.320Z,25.40
2017-11-15T23:48:03.262Z,23.97
2017-11-15T23:50:32.650Z,26.43
2017-11-15T23:53:01.627Z,25.97
2017-11-15T23:55:30.582Z,24.90
2017-11-15T23:58:00.000Z,24.73
